Tropical Cyclones
[Index]
Main Index Home Page Stock Weather Photos Extreme Storms Discussion Storm News and Storm Chasing Reports Tropical Cyclones / Hurricanes / Typhoons Weather Data and Links Wild Fires / Bushfires Weather Observation Techniques Weather Picture Catalogue Tornado Pictures and Reports Stock Video Footage and DVDs for sale
Season 1956-1957 Tropical Cyclone 195713 Track Map
Season 1956-1957 Summaries: [BoM-AU] [JTWC-AU] [JTWC-SIO] [JTWC-SPAC] [JTWC-SH]
<<- Previous TC | JTWC 1956-1957 Season | Next TC ->>

click for intensity scale information  Lat/long Grid: Show Hide

 Date Labels: Show Hide

Joint Typhoon Warning Centre Cyclone Data

Name: 195713
Number: 290 / 5713

15 Jan 1957 18:00 UTC to 22 Jan 1957 12:00 UTC

    date/time    lat    long     hPa   cat  kts
1957-01-15 18   11.3   161.5                  30          
1957-01-16 00   11.3   161.4                  20          
1957-01-16 06   11.3   161.5                  15          
1957-01-16 12   11.3   161.8                  15          
1957-01-16 18   11.3   162.0                  15          
1957-01-17 00   11.3   162.3                  15          
1957-01-17 06   11.3   162.5                  15          
1957-01-17 12   11.4   162.7                  15          
1957-01-17 18   11.6   162.8                  20          
1957-01-18 00   11.8   162.9                  20          
1957-01-18 06   12.0   163.0                  20          
1957-01-18 12   12.6   163.0                  15          
1957-01-18 18   13.1   163.0                  15          
1957-01-19 00   13.3   162.8                  15          
1957-01-19 06   13.6   162.4                  15          
1957-01-19 12   14.1   162.0                  15          
1957-01-19 18   14.7   161.6                  15          
1957-01-20 00   15.4   161.3                  15          
1957-01-20 06   16.2   160.9                  15          
1957-01-20 12   17.5   160.1                  25          
1957-01-20 18   18.6   159.2                  30          
1957-01-21 00   19.4   158.5                  30          
1957-01-21 06   20.1   157.9                  30          
1957-01-21 12   21.1   157.7                  30          
1957-01-21 18   21.9   157.6                  30          
1957-01-22 00   22.8   157.7                  25          
1957-01-22 06   23.6   158.1                  25          
1957-01-22 12   24.4   158.9                  20          
Winds are 1-min average.

Tropical cyclone tracks developed by Michael Bath using data from the Joint Typhoon Warning Centre Best Tracks and Google Maps.


[Australian Severe Weather index] [Copyright Notice] [Email Contacts] [Search This Site] [Privacy Policy]
Document: tropical_cyclone_195713.htm Updated: 18 September 2016